Time;durP1;ratioP1;P1;durP2;ratioP2;P2;SDS_P1;SDS_P2;PMS_P1;PMS_P2;Temp;Humidity;BMP_temperature;BMP_pressure;BME280_temperature;BME280_humidity;BME280_pressure;Samples;Min_cycle;Max_cycle;Signal;HPM_P1;HPM_P2
2023/01/04 00:00:09;;;;;;;1.10;1.10;;;;;;;7.73;91.59;96677.53;4356760;32;20312;-58
2023/01/04 00:02:34;;;;;;;1.87;1.77;;;;;;;7.88;91.00;96669.87;4367132;32;20288;-58
2023/01/04 00:05:00;;;;;;;2.40;2.03;;;;;;;7.68;91.56;96666.94;4358556;32;20345;-58
2023/01/04 00:07:28;;;;;;;1.40;1.40;;;;;;;7.82;91.44;96671.63;4357952;32;20172;-59
2023/01/04 00:09:53;;;;;;;1.17;1.17;;;;;;;7.72;91.62;96665.38;4369094;32;20184;-58
2023/01/04 00:12:18;;;;;;;2.03;1.93;;;;;;;7.83;91.06;96661.88;4384515;32;20302;-58
2023/01/04 00:14:44;;;;;;;2.10;2.00;;;;;;;7.68;92.04;96659.81;4371273;32;20229;-59
2023/01/04 00:17:09;;;;;;;1.47;1.40;;;;;;;7.77;91.88;96660.19;4354528;32;20186;-58
2023/01/04 00:19:34;;;;;;;1.70;1.60;;;;;;;7.73;92.13;96656.41;4358832;32;20251;-58
2023/01/04 00:22:00;;;;;;;0.97;0.97;;;;;;;7.69;91.75;96655.31;4369375;32;20195;-58
2023/01/04 00:24:25;;;;;;;0.90;0.90;;;;;;;7.52;92.62;96656.09;4368108;32;20189;-58
2023/01/04 00:26:50;;;;;;;1.50;1.40;;;;;;;7.75;92.06;96664.91;4365822;32;20203;-58
2023/01/04 00:29:16;;;;;;;1.60;1.57;;;;;;;7.41;92.88;96657.00;4367565;32;20197;-58
2023/01/04 00:31:43;;;;;;;1.63;1.63;;;;;;;7.40;93.52;96660.69;4362181;32;20177;-58
2023/01/04 00:34:11;;;;;;;0.80;0.80;;;;;;;7.68;92.15;96653.72;4357742;32;20292;-58
2023/01/04 00:36:37;;;;;;;1.40;1.30;;;;;;;7.36;92.51;96659.56;4359902;32;20301;-58
2023/01/04 00:39:09;;;;;;;1.63;1.53;;;;;;;7.51;92.90;96653.72;4362422;32;20276;-61
2023/01/04 00:41:41;;;;;;;1.90;1.80;;;;;;;7.58;92.26;96664.91;4365450;32;20185;-57
2023/01/04 00:44:08;;;;;;;1.07;1.07;;;;;;;7.59;91.77;96654.13;4359444;32;20277;-58
2023/01/04 00:46:34;;;;;;;1.53;1.43;;;;;;;7.75;91.21;96649.84;4378087;32;20273;-59
2023/01/04 00:48:59;;;;;;;2.10;2.00;;;;;;;7.72;91.02;96649.53;4358483;32;20276;-58
2023/01/04 00:51:25;;;;;;;1.10;1.10;;;;;;;7.62;91.64;96647.56;4358228;32;20295;-59
2023/01/04 00:53:51;;;;;;;2.17;2.07;;;;;;;7.43;92.45;96647.00;4350353;32;20185;-59
2023/01/04 00:56:16;;;;;;;1.37;1.37;;;;;;;7.28;93.24;96644.09;4356658;32;20185;-58
2023/01/04 00:58:42;;;;;;;1.63;1.57;;;;;;;7.38;92.83;96638.19;4369547;32;20314;-58
2023/01/04 01:01:09;;;;;;;1.43;1.43;;;;;;;7.21;93.70;96640.84;4363645;32;20203;-58
2023/01/04 01:03:34;;;;;;;1.83;1.73;;;;;;;7.15;93.64;96634.66;4367649;32;20199;-58
2023/01/04 01:06:04;;;;;;;1.03;1.03;;;;;;;7.32;93.17;96624.13;4373731;32;20296;-58
2023/01/04 01:08:32;;;;;;;2.03;1.93;;;;;;;7.40;92.43;96631.66;4360587;32;20239;-59
2023/01/04 01:11:05;;;;;;;1.83;0.83;;;;;;;7.29;92.69;96627.22;4356467;32;20297;-58
2023/01/04 01:13:31;;;;;;;1.43;1.43;;;;;;;7.48;91.74;96622.53;4359221;32;20273;-58
2023/01/04 01:16:02;;;;;;;1.67;1.57;;;;;;;7.43;91.75;96630.38;4368090;32;20324;-58
2023/01/04 01:18:28;;;;;;;1.73;1.73;;;;;;;7.39;91.25;96624.75;4358726;32;20192;-59
2023/01/04 01:20:53;;;;;;;3.70;2.17;;;;;;;7.36;91.20;96629.72;4360052;32;20300;-58
2023/01/04 01:23:19;;;;;;;1.00;1.00;;;;;;;7.34;91.18;96626.50;4360387;32;20207;-59
2023/01/04 01:25:44;;;;;;;1.37;1.37;;;;;;;7.28;91.55;96622.19;4362832;32;20229;-58
2023/01/04 01:28:09;;;;;;;1.93;1.83;;;;;;;7.26;91.50;96624.28;4366804;32;20188;-58
2023/01/04 01:30:40;;;;;;;1.03;1.03;;;;;;;7.36;91.14;96624.44;4369321;32;20251;-58
2023/01/04 01:33:05;;;;;;;1.53;1.43;;;;;;;7.30;91.86;96634.09;4363731;32;20259;-58
2023/01/04 01:35:32;;;;;;;1.90;1.80;;;;;;;7.33;91.63;96624.91;4363687;32;20277;-59
2023/01/04 01:37:57;;;;;;;1.90;1.80;;;;;;;7.14;91.94;96642.81;4355591;32;20196;-58
2023/01/04 01:40:22;;;;;;;1.40;1.40;;;;;;;7.05;92.79;96637.16;4371113;32;20277;-58
2023/01/04 01:42:48;;;;;;;1.87;1.77;;;;;;;6.97;92.55;96639.37;4362222;32;20173;-58
2023/01/04 01:45:32;;;;;;;1.23;1.20;;;;;;;6.96;92.93;96645.69;4360043;32;20193;-58
2023/01/04 01:48:13;;;;;;;1.63;1.63;;;;;;;6.99;92.71;96651.28;4360029;32;20181;-58
2023/01/04 01:50:47;;;;;;;1.43;1.40;;;;;;;6.86;92.94;96647.09;4375167;32;20276;-58
2023/01/04 01:53:13;;;;;;;1.33;1.33;;;;;;;7.13;92.25;96646.50;4359656;32;20289;-58
2023/01/04 01:55:40;;;;;;;1.30;1.20;;;;;;;7.12;92.27;96647.53;4377453;32;20284;-58
2023/01/04 01:58:09;;;;;;;1.20;1.20;;;;;;;7.10;92.18;96646.97;4370844;32;20194;-58
2023/01/04 02:00:35;;;;;;;2.17;2.07;;;;;;;6.91;92.78;96654.28;4356269;32;20352;-58
2023/01/04 02:03:15;;;;;;;2.43;2.13;;;;;;;7.02;92.57;96652.66;4374612;32;20276;-58
2023/01/04 02:05:42;;;;;;;1.50;1.50;;;;;;;6.65;93.74;96652.25;4365544;32;20177;-58
2023/01/04 02:08:07;;;;;;;0.90;0.90;;;;;;;6.79;93.30;96666.75;4366911;32;20321;-58
2023/01/04 02:10:34;;;;;;;1.73;1.63;;;;;;;6.73;93.56;96663.19;4384731;32;20282;-59
2023/01/04 02:13:11;;;;;;;1.50;1.50;;;;;;;6.72;93.15;96660.78;4377504;32;20185;-58
2023/01/04 02:16:08;;;;;;;0.97;0.97;;;;;;;6.81;93.11;96654.94;4366420;32;20296;-58
2023/01/04 02:18:43;;;;;;;1.13;1.13;;;;;;;6.67;93.25;96643.03;4368053;32;20319;-58
2023/01/04 02:21:20;;;;;;;0.77;0.77;;;;;;;6.68;93.42;96642.00;4362975;32;20268;-58
2023/01/04 02:24:20;;;;;;;1.47;1.37;;;;;;;6.54;93.71;96648.59;4381818;32;20374;-58
2023/01/04 02:27:04;;;;;;;2.77;1.30;;;;;;;6.31;94.71;96648.66;4373983;32;20350;-58
2023/01/04 02:29:50;;;;;;;0.97;0.97;;;;;;;6.40;94.20;96652.56;4359946;32;20273;-58
2023/01/04 02:32:24;;;;;;;0.90;0.90;;;;;;;6.47;94.14;96645.28;4368959;32;20327;-58
2023/01/04 02:35:24;;;;;;;2.20;1.27;;;;;;;6.54;93.43;96638.06;4384049;32;20372;-58
2023/01/04 02:38:04;;;;;;;1.70;1.60;;;;;;;6.33;94.32;96636.06;4359539;32;20296;-58
2023/01/04 02:41:04;;;;;;;0.70;0.70;;;;;;;6.33;94.10;96641.31;4360200;32;20304;-58
2023/01/04 02:46:54;;;;;;;1.40;1.30;;;;;;;6.29;94.34;96635.72;4357148;32;20315;-58
2023/01/04 02:52:03;;;;;;;1.60;1.20;;;;;;;6.42;93.57;96646.00;4359640;32;20300;-58
2023/01/04 02:54:31;;;;;;;1.20;1.20;;;;;;;6.20;94.45;96640.56;4370786;32;20293;-58
2023/01/04 02:57:15;;;;;;;1.07;1.07;;;;;;;6.27;94.73;96632.50;4368715;32;20193;-58
2023/01/04 02:59:43;;;;;;;0.73;0.73;;;;;;;6.25;95.02;96628.50;4359939;32;20311;-59
2023/01/04 03:08:31;;;;;;;1.10;1.10;;;;;;;6.17;96.58;96613.88;4366582;32;20375;-58
2023/01/04 03:12:30;;;;;;;1.50;1.50;;;;;;;6.22;96.29;96613.19;4357511;32;20285;-58
2023/01/04 03:13:59;;;;;;;1.30;1.20;;;;;;;6.27;96.20;96608.00;4368625;32;20273;-58
2023/01/04 03:16:25;;;;;;;1.27;1.27;;;;;;;6.28;96.53;96596.44;4357017;32;20286;-58
2023/01/04 03:18:55;;;;;;;0.77;0.77;;;;;;;6.19;96.92;96594.19;4375199;32;20297;-58
2023/01/04 03:21:24;;;;;;;1.00;1.00;;;;;;;6.18;97.16;96603.13;4379281;32;20281;-58
2023/01/04 03:36:19;;;;;;;2.00;1.90;;;;;;;6.36;96.61;96606.59;4353926;32;20291;-58
2023/01/04 03:50:54;;;;;;;0.93;0.93;;;;;;;6.38;97.07;96583.47;4361694;32;20358;-58
2023/01/04 03:53:20;;;;;;;1.00;1.00;;;;;;;6.43;96.77;96586.19;4357349;32;20302;-58
2023/01/04 03:55:46;;;;;;;1.07;1.07;;;;;;;6.34;96.78;96593.66;4354254;32;20320;-58
2023/01/04 03:58:11;;;;;;;1.50;1.50;;;;;;;6.36;96.19;96588.16;4360056;32;20181;-58
2023/01/04 04:00:37;;;;;;;1.13;1.07;;;;;;;6.46;96.35;96580.44;4362263;32;20307;-58
2023/01/04 04:03:08;;;;;;;1.43;1.30;;;;;;;6.28;96.13;96576.16;4382356;32;20184;-63
2023/01/04 04:08:25;;;;;;;1.70;0.83;;;;;;;6.44;95.81;96577.25;4374847;32;20366;-58
2023/01/04 04:10:51;;;;;;;1.17;1.17;;;;;;;6.55;95.55;96571.13;4360332;32;20278;-58
2023/01/04 04:13:16;;;;;;;1.07;1.07;;;;;;;6.73;94.51;96567.47;4359329;32;20296;-58
2023/01/04 04:15:41;;;;;;;0.67;0.67;;;;;;;6.45;94.61;96569.09;4377033;32;20194;-58
2023/01/04 04:18:07;;;;;;;1.23;1.23;;;;;;;6.62;94.42;96557.81;4355905;32;20237;-58
2023/01/04 04:20:33;;;;;;;1.57;1.47;;;;;;;6.71;93.83;96554.53;4358876;32;20186;-60
2023/01/04 04:22:58;;;;;;;1.23;1.23;;;;;;;6.80;93.09;96552.31;4361407;32;20265;-58
2023/01/04 04:25:24;;;;;;;0.70;0.70;;;;;;;6.65;93.27;96554.69;4367532;32;20181;-58
2023/01/04 04:27:49;;;;;;;0.97;0.97;;;;;;;6.51;93.44;96560.25;4363344;32;20173;-58
2023/01/04 04:30:15;;;;;;;1.47;1.43;;;;;;;6.50;93.77;96560.47;4355404;32;20205;-58
2023/01/04 04:32:41;;;;;;;0.60;0.60;;;;;;;6.46;93.25;96561.97;4367835;32;20181;-57
2023/01/04 04:35:07;;;;;;;0.57;0.57;;;;;;;6.45;93.32;96570.91;4365998;32;20168;-58
2023/01/04 04:37:33;;;;;;;0.77;0.77;;;;;;;6.43;92.81;96563.28;4356694;32;20310;-66
2023/01/04 04:39:59;;;;;;;0.77;0.77;;;;;;;6.51;92.56;96560.25;4365527;32;20189;-57
2023/01/04 04:42:24;;;;;;;0.90;0.90;;;;;;;6.37;92.28;96558.13;4346700;32;20287;-58
2023/01/04 04:44:50;;;;;;;0.70;0.70;;;;;;;6.35;92.47;96554.94;4368467;32;20181;-58
2023/01/04 04:47:15;;;;;;;0.73;0.73;;;;;;;6.19;93.04;96546.75;4364645;32;20228;-58
2023/01/04 04:49:40;;;;;;;0.43;0.43;;;;;;;6.19;92.83;96541.50;4370844;32;20242;-59
2023/01/04 04:52:06;;;;;;;0.43;0.43;;;;;;;6.30;92.15;96537.19;4364810;32;20280;-58
2023/01/04 04:54:31;;;;;;;1.33;0.30;;;;;;;6.24;91.50;96537.31;4354775;32;20272;-58
2023/01/04 04:56:56;;;;;;;0.50;0.50;;;;;;;6.34;91.60;96533.06;4366000;32;20197;-58
2023/01/04 04:59:22;;;;;;;0.60;0.60;;;;;;;6.29;91.41;96532.16;4369817;32;20244;-58
2023/01/04 05:01:47;;;;;;;0.87;0.87;;;;;;;6.12;91.65;96530.28;4367380;32;20189;-58
2023/01/04 05:04:15;;;;;;;0.83;0.73;;;;;;;6.33;90.80;96528.81;4362812;32;20196;-58
2023/01/04 05:06:42;;;;;;;0.20;0.20;;;;;;;6.13;90.95;96526.63;4371639;32;20212;-58
2023/01/04 05:09:09;;;;;;;0.80;0.80;;;;;;;6.07;91.69;96532.00;4370310;32;20294;-57
2023/01/04 05:14:18;;;;;;;0.47;0.47;;;;;;;5.87;91.96;96532.37;4366409;32;20321;-58
2023/01/04 05:16:44;;;;;;;0.07;0.07;;;;;;;6.06;91.51;96536.47;4381522;32;20277;-58
2023/01/04 05:19:09;;;;;;;0.37;0.37;;;;;;;6.18;90.91;96534.63;4368318;32;20266;-58
2023/01/04 05:21:35;;;;;;;0.33;0.33;;;;;;;6.08;90.77;96528.34;4382422;32;20219;-58
2023/01/04 05:24:00;;;;;;;0.23;0.23;;;;;;;6.04;90.75;96522.75;4373247;32;20212;-58
2023/01/04 05:26:28;;;;;;;0.30;0.30;;;;;;;6.14;90.59;96530.03;4361923;32;20200;-58
2023/01/04 05:28:53;;;;;;;0.50;0.30;;;;;;;6.03;90.36;96522.97;4366408;32;20290;-58
2023/01/04 05:31:18;;;;;;;0.53;0.40;;;;;;;6.14;90.37;96528.22;4385638;32;20355;-58
2023/01/04 05:33:44;;;;;;;1.00;1.00;;;;;;;6.39;88.96;96522.62;4362080;32;20193;-58
2023/01/04 05:36:09;;;;;;;0.30;0.30;;;;;;;6.25;89.14;96529.19;4375084;32;20193;-58
2023/01/04 05:38:38;;;;;;;0.40;0.40;;;;;;;6.10;89.88;96531.53;4377289;32;20184;-58
2023/01/04 05:42:23;;;;;;;0.40;0.40;;;;;;;5.96;90.52;96528.41;4368455;32;20186;-58
2023/01/04 05:43:49;;;;;;;0.63;0.60;;;;;;;5.85;90.75;96535.25;4370709;32;20275;-57
2023/01/04 05:46:14;;;;;;;0.33;0.33;;;;;;;5.81;91.03;96536.78;4373007;32;20280;-57
2023/01/04 05:48:40;;;;;;;0.40;0.40;;;;;;;5.79;91.29;96535.41;4377322;32;20238;-58
2023/01/04 05:51:05;;;;;;;0.27;0.27;;;;;;;5.71;91.59;96538.38;4373230;32;20245;-58
2023/01/04 05:53:30;;;;;;;0.23;0.23;;;;;;;5.58;91.93;96544.72;4374762;32;20216;-58
2023/01/04 05:55:56;;;;;;;0.10;0.10;;;;;;;5.80;91.24;96527.28;4372247;32;20230;-58
2023/01/04 05:58:21;;;;;;;0.40;0.40;;;;;;;5.88;90.92;96539.25;4361864;32;20200;-58
2023/01/04 06:00:46;;;;;;;0.33;0.33;;;;;;;5.69;91.14;96540.44;4367372;32;20197;-58
2023/01/04 06:03:11;;;;;;;0.40;0.40;;;;;;;5.95;90.43;96529.44;4370967;32;20189;-58
2023/01/04 06:05:37;;;;;;;0.40;0.40;;;;;;;5.80;90.50;96531.72;4361975;32;20193;-58
2023/01/04 06:08:02;;;;;;;0.20;0.20;;;;;;;5.77;91.07;96534.81;4365081;32;20185;-58
2023/01/04 06:10:28;;;;;;;0.30;0.30;;;;;;;5.96;90.60;96538.13;4359638;32;20199;-58
2023/01/04 06:12:53;;;;;;;2.93;2.80;;;;;;;6.06;89.95;96541.75;4363754;32;20264;-58
2023/01/04 06:15:19;;;;;;;2.13;2.00;;;;;;;6.20;89.49;96548.34;4358143;32;20223;-58
2023/01/04 06:17:44;;;;;;;0.40;0.40;;;;;;;6.25;89.23;96549.47;4370436;32;20189;-58
2023/01/04 06:20:15;;;;;;;0.27;0.27;;;;;;;6.34;89.03;96550.69;4367472;32;20189;-58
2023/01/04 06:22:41;;;;;;;0.30;0.30;;;;;;;6.38;88.66;96554.47;4371191;32;20246;-58
2023/01/04 06:25:08;;;;;;;0.00;0.00;;;;;;;6.22;89.52;96561.31;4376415;32;20310;-58
2023/01/04 06:27:34;;;;;;;0.00;0.00;;;;;;;6.16;90.55;96555.13;4373357;32;20330;-59
2023/01/04 06:29:59;;;;;;;0.30;0.30;;;;;;;6.15;91.00;96553.53;4360374;32;20347;-58
2023/01/04 06:32:24;;;;;;;0.30;0.30;;;;;;;6.11;91.39;96555.03;4366159;32;20256;-58
2023/01/04 06:34:50;;;;;;;0.37;0.37;;;;;;;6.22;91.07;96550.75;4360056;32;20213;-58
2023/01/04 06:37:15;;;;;;;0.17;0.17;;;;;;;6.33;90.72;96557.00;4368968;32;20238;-58
2023/01/04 06:39:40;;;;;;;0.10;0.03;;;;;;;6.21;90.88;96546.53;4365342;32;20257;-58
2023/01/04 06:42:43;;;;;;;0.47;0.47;;;;;;;6.40;90.69;96552.41;4359307;32;20243;-58
2023/01/04 06:44:51;;;;;;;0.10;0.10;;;;;;;6.12;91.29;96546.09;4364415;32;20190;-58
2023/01/04 06:47:16;;;;;;;0.30;0.30;;;;;;;6.22;91.76;96539.44;4363556;32;20304;-58
2023/01/04 06:49:41;;;;;;;0.20;0.20;;;;;;;6.19;92.04;96532.78;4366320;32;20188;-58
2023/01/04 06:52:07;;;;;;;0.10;0.10;;;;;;;6.24;91.78;96516.25;4356654;32;20216;-58
2023/01/04 06:54:32;;;;;;;0.37;0.37;;;;;;;6.41;91.49;96517.91;4366004;32;20200;-58
2023/01/04 06:56:57;;;;;;;0.43;0.43;;;;;;;6.64;90.51;96524.09;4368571;32;20196;-58
2023/01/04 06:59:23;;;;;;;0.30;0.30;;;;;;;6.63;90.32;96518.03;4372511;32;20287;-58
2023/01/04 07:01:48;;;;;;;0.30;0.30;;;;;;;6.74;90.04;96511.88;4372759;32;20219;-58
2023/01/04 07:04:13;;;;;;;0.17;0.17;;;;;;;6.84;89.40;96519.16;4375400;32;20249;-58
2023/01/04 07:06:39;;;;;;;0.33;0.30;;;;;;;6.54;90.15;96522.88;4362333;32;20279;-58
2023/01/04 07:09:04;;;;;;;0.83;0.30;;;;;;;6.83;89.16;96515.72;4364554;32;20219;-60
2023/01/04 07:11:29;;;;;;;0.27;0.27;;;;;;;6.70;88.77;96516.00;4367174;32;20220;-59
2023/01/04 07:13:54;;;;;;;1.23;0.50;;;;;;;6.76;88.50;96520.34;4367155;32;20189;-58
2023/01/04 07:16:20;;;;;;;0.67;0.67;;;;;;;6.20;90.19;96519.38;4357935;32;20209;-58
2023/01/04 07:18:45;;;;;;;0.43;0.43;;;;;;;6.40;90.25;96515.50;4360033;32;20264;-58
2023/01/04 07:21:10;;;;;;;0.03;0.03;;;;;;;6.58;88.90;96519.75;4361395;32;20209;-58
2023/01/04 07:23:36;;;;;;;0.10;0.10;;;;;;;6.30;89.85;96525.84;4356260;32;20240;-58
2023/01/04 07:26:02;;;;;;;0.20;0.20;;;;;;;6.43;89.09;96520.31;4377574;32;20193;-58
2023/01/04 07:31:13;;;;;;;0.70;0.63;;;;;;;6.30;89.56;96515.31;4374637;32;20306;-58
2023/01/04 07:33:38;;;;;;;0.33;0.33;;;;;;;6.29;89.28;96516.34;4377951;32;20332;-58
2023/01/04 07:36:05;;;;;;;0.20;0.20;;;;;;;6.20;89.84;96516.75;4355078;32;20278;-59
2023/01/04 07:38:34;;;;;;;0.20;0.20;;;;;;;6.10;90.22;96521.00;4359453;32;20186;-58
2023/01/04 07:41:00;;;;;;;0.80;0.73;;;;;;;6.24;90.15;96522.31;4354895;32;20290;-58
2023/01/04 07:43:25;;;;;;;0.07;0.07;;;;;;;5.97;90.53;96526.56;4366917;32;20315;-58
2023/01/04 07:45:51;;;;;;;0.27;0.27;;;;;;;5.93;90.97;96526.22;4351977;32;20303;-58
2023/01/04 07:48:16;;;;;;;0.40;0.40;;;;;;;5.85;91.55;96529.19;4356259;32;20234;-58
2023/01/04 07:50:43;;;;;;;0.37;0.37;;;;;;;5.94;91.22;96521.75;4347155;32;20190;-58
2023/01/04 07:53:08;;;;;;;0.47;0.47;;;;;;;5.99;90.86;96513.97;4350778;32;20212;-58
2023/01/04 07:55:33;;;;;;;0.00;0.00;;;;;;;5.96;91.02;96509.97;4360734;32;20292;-58
2023/01/04 07:57:58;;;;;;;0.20;0.20;;;;;;;5.89;91.79;96503.22;4357956;32;20274;-58
2023/01/04 08:00:24;;;;;;;0.13;0.13;;;;;;;6.12;91.19;96503.94;4369348;32;20224;-58
2023/01/04 08:02:49;;;;;;;0.50;0.50;;;;;;;6.13;90.85;96497.63;4357852;32;20261;-58
2023/01/04 08:05:14;;;;;;;0.33;0.33;;;;;;;6.13;90.57;96494.19;4361194;32;20201;-58
2023/01/04 08:07:40;;;;;;;0.30;0.30;;;;;;;6.07;91.06;96482.75;4364231;32;20227;-58
2023/01/04 08:10:06;;;;;;;0.10;0.10;;;;;;;6.27;90.81;96489.44;4362614;32;20226;-58
2023/01/04 08:12:31;;;;;;;2.00;0.63;;;;;;;6.24;90.66;96495.16;4354897;32;20193;-58
2023/01/04 08:14:56;;;;;;;0.07;0.07;;;;;;;6.22;90.97;96482.25;4361115;32;20204;-58
2023/01/04 08:17:21;;;;;;;0.20;0.20;;;;;;;6.31;90.92;96480.81;4369969;32;20193;-57
2023/01/04 08:19:47;;;;;;;0.50;0.50;;;;;;;6.39;90.64;96482.28;4351037;32;20193;-58
2023/01/04 08:22:12;;;;;;;0.30;0.30;;;;;;;6.43;90.32;96478.16;4350293;32;20210;-58
2023/01/04 08:24:38;;;;;;;0.17;0.17;;;;;;;6.57;90.44;96478.63;4352661;32;20212;-58
2023/01/04 08:27:05;;;;;;;0.40;0.40;;;;;;;6.54;90.41;96478.06;4369145;32;20203;-58
2023/01/04 08:29:30;;;;;;;0.57;0.30;;;;;;;6.57;90.20;96483.91;4369474;32;20358;-43
2023/01/04 08:31:56;;;;;;;0.43;0.30;;;;;;;9.10;100.00;96470.19;4357648;32;20289;-43
2023/01/04 08:34:21;;;;;;;0.23;0.23;;;;;;;10.14;100.00;96472.78;4378372;32;20204;-43
2023/01/04 08:36:49;;;;;;;0.30;0.30;;;;;;;10.72;100.00;96467.31;4365699;32;20230;-46
2023/01/04 08:39:14;;;;;;;0.50;0.50;;;;;;;11.70;93.51;96468.44;4345460;32;20223;-47
2023/01/04 08:41:52;;;;;;;0.30;0.30;;;;;;;12.32;81.14;96466.31;4362299;32;20188;-46
2023/01/04 08:44:20;;;;;;;0.17;0.17;;;;;;;13.04;74.09;96468.19;4373078;32;20207;-58
2023/01/04 08:46:46;;;;;;;0.83;0.83;;;;;;;12.82;71.99;96469.72;4365823;32;20231;-57
2023/01/04 08:49:11;;;;;;;0.33;0.33;;;;;;;10.93;69.73;96479.50;4357484;32;20194;-59
2023/01/04 08:51:37;;;;;;;0.40;0.40;;;;;;;10.32;73.74;96482.94;4362495;32;20201;-58
2023/01/04 08:54:02;;;;;;;0.20;0.20;;;;;;;10.06;75.46;96469.81;4370584;32;20196;-59
2023/01/04 08:56:28;;;;;;;0.60;0.60;;;;;;;9.65;77.51;96475.78;4359417;32;20303;-59
2023/01/04 08:58:53;;;;;;;0.60;0.60;;;;;;;9.06;80.08;96477.03;4359887;32;20327;-58
2023/01/04 09:01:18;;;;;;;0.50;0.50;;;;;;;8.92;81.56;96474.03;4360820;32;20189;-58
2023/01/04 09:03:43;;;;;;;0.20;0.20;;;;;;;8.68;82.41;96473.59;4365401;32;20215;-58
2023/01/04 09:06:12;;;;;;;0.33;0.33;;;;;;;8.86;81.66;96472.41;4365381;32;20205;-58
2023/01/04 09:08:38;;;;;;;0.13;0.13;;;;;;;8.30;84.09;96473.75;4374729;32;20201;-58
2023/01/04 09:11:06;;;;;;;0.70;0.50;;;;;;;8.70;82.88;96466.22;4366949;32;20212;-58
2023/01/04 09:13:32;;;;;;;0.30;0.30;;;;;;;8.60;82.96;96460.81;4360601;32;20269;-58
2023/01/04 09:16:06;;;;;;;0.60;0.60;;;;;;;8.76;82.90;96451.16;4367431;32;20212;-58
2023/01/04 09:18:32;;;;;;;0.30;0.30;;;;;;;8.94;82.20;96453.38;4356105;32;20212;-58
2023/01/04 09:21:00;;;;;;;0.13;0.13;;;;;;;8.69;82.87;96451.38;4363642;32;20216;-58
2023/01/04 09:23:27;;;;;;;0.30;0.30;;;;;;;8.73;83.19;96449.03;4360980;32;20198;-58
2023/01/04 09:25:52;;;;;;;0.30;0.30;;;;;;;8.48;84.07;96453.06;4364017;32;20196;-58
2023/01/04 09:28:18;;;;;;;0.20;0.20;;;;;;;8.54;84.33;96453.88;4337275;32;20193;-58
2023/01/04 09:30:43;;;;;;;0.70;0.70;;;;;;;8.61;84.33;96452.62;4349932;32;20275;-58
2023/01/04 09:33:08;;;;;;;0.23;0.23;;;;;;;8.44;84.85;96446.69;4364337;32;20272;-58
2023/01/04 09:35:34;;;;;;;0.30;0.30;;;;;;;8.52;85.32;96448.06;4358060;32;20299;-58
2023/01/04 09:38:00;;;;;;;0.53;0.50;;;;;;;8.73;84.18;96446.38;4362711;32;20246;-58
2023/01/04 09:40:56;;;;;;;0.20;0.20;;;;;;;8.88;83.80;96449.94;4355447;32;20193;-58
2023/01/04 09:43:22;;;;;;;0.47;0.47;;;;;;;9.16;82.65;96443.47;4357437;32;20197;-57
2023/01/04 09:45:54;;;;;;;0.40;0.40;;;;;;;9.00;83.23;96444.44;4350156;32;20201;-58
2023/01/04 09:48:25;;;;;;;0.67;0.67;;;;;;;9.17;83.02;96446.91;4352100;32;20201;-57
2023/01/04 09:51:01;;;;;;;0.60;0.60;;;;;;;8.91;83.41;96438.84;4356790;32;20256;-58
2023/01/04 09:53:36;;;;;;;0.60;0.60;;;;;;;9.04;83.29;96439.44;4355058;32;20189;-58
2023/01/04 09:56:17;;;;;;;0.53;0.40;;;;;;;8.90;84.04;96445.19;4359584;32;20192;-58
2023/01/04 09:58:43;;;;;;;0.70;0.70;;;;;;;9.23;83.29;96440.63;4363647;32;20207;-58
2023/01/04 10:01:20;;;;;;;0.43;0.37;;;;;;;9.08;83.73;96435.25;4366948;32;20200;-58
2023/01/04 10:03:53;;;;;;;0.67;0.67;;;;;;;9.23;83.58;96438.75;4353739;32;20263;-57
2023/01/04 10:06:19;;;;;;;0.40;0.40;;;;;;;9.27;82.96;96439.84;4356975;32;20201;-58
2023/01/04 10:08:44;;;;;;;0.57;0.57;;;;;;;9.28;82.95;96445.94;4358896;32;20229;-58
2023/01/04 10:11:36;;;;;;;0.47;0.47;;;;;;;9.55;82.41;96435.22;4356105;32;20223;-58
2023/01/04 10:14:20;;;;;;;0.67;0.43;;;;;;;9.30;82.82;96433.25;4358868;32;20192;-59
2023/01/04 10:17:06;;;;;;;0.10;0.10;;;;;;;9.29;82.01;96426.34;4364308;32;20215;-58
2023/01/04 10:19:44;;;;;;;0.20;0.20;;;;;;;9.29;82.83;96424.50;4347153;32;20197;-58
2023/01/04 10:22:23;;;;;;;0.10;0.10;;;;;;;9.30;83.15;96420.00;4364986;32;20201;-58
2023/01/04 10:25:13;;;;;;;0.37;0.37;;;;;;;9.46;82.64;96418.22;4353422;32;20232;-58
2023/01/04 10:28:05;;;;;;;0.40;0.40;;;;;;;9.44;82.42;96418.47;4365981;32;20244;-57
2023/01/04 10:30:55;;;;;;;0.40;0.40;;;;;;;9.35;82.14;96412.09;4369486;32;20248;-58
2023/01/04 10:33:33;;;;;;;0.47;0.47;;;;;;;9.44;82.02;96401.78;4372787;32;20220;-58
2023/01/04 10:35:58;;;;;;;0.17;0.17;;;;;;;9.59;81.47;96392.03;4343738;32;20313;-58
2023/01/04 10:38:31;;;;;;;0.10;0.10;;;;;;;9.52;81.89;96394.16;4350972;32;20280;-57
2023/01/04 10:41:00;;;;;;;0.27;0.27;;;;;;;9.69;81.09;96388.63;4358847;32;20212;-59
2023/01/04 10:43:38;;;;;;;0.20;0.20;;;;;;;9.68;80.15;96376.44;4361815;32;20207;-58
2023/01/04 10:46:04;;;;;;;0.20;0.20;;;;;;;9.86;79.79;96372.50;4358435;32;20201;-66
2023/01/04 10:48:49;;;;;;;0.07;0.03;;;;;;;9.86;79.08;96369.84;4363343;32;20234;-57
2023/01/04 10:51:19;;;;;;;0.10;0.10;;;;;;;9.83;77.97;96357.91;4368592;32;20247;-57
2023/01/04 10:53:53;;;;;;;0.33;0.20;;;;;;;9.88;77.44;96362.44;4359027;32;20197;-57
2023/01/04 10:56:30;;;;;;;4.53;0.40;;;;;;;9.97;77.02;96366.19;4358365;32;20203;-58
2023/01/04 10:59:00;;;;;;;0.20;0.20;;;;;;;9.88;77.20;96359.78;4352217;32;20192;-59
2023/01/04 11:01:40;;;;;;;2.10;0.50;;;;;;;9.98;75.61;96354.50;4358567;32;20193;-57
2023/01/04 11:04:35;;;;;;;0.00;0.00;;;;;;;9.87;75.96;96347.59;4362179;32;20197;-59
2023/01/04 11:07:22;;;;;;;0.23;0.23;;;;;;;9.83;76.04;96347.31;4356756;32;20227;-59
2023/01/04 11:10:04;;;;;;;0.20;0.20;;;;;;;9.88;76.41;96346.53;4356041;32;20192;-58
2023/01/04 11:12:30;;;;;;;0.20;0.20;;;;;;;9.78;75.59;96339.34;4363346;32;20211;-58
2023/01/04 11:14:56;;;;;;;0.00;0.00;;;;;;;9.72;75.78;96337.78;4353975;32;20192;-57
2023/01/04 11:17:23;;;;;;;0.03;0.03;;;;;;;9.78;75.40;96333.25;4358240;32;20233;-57
2023/01/04 11:19:49;;;;;;;0.17;0.17;;;;;;;9.82;75.12;96324.53;4361600;32;20230;-58
2023/01/04 11:22:35;;;;;;;0.30;0.17;;;;;;;9.89;74.74;96329.56;4354958;32;20193;-56
2023/01/04 11:25:04;;;;;;;0.27;0.13;;;;;;;9.96;73.33;96327.47;4361861;32;20193;-59
2023/01/04 11:27:39;;;;;;;0.13;0.13;;;;;;;9.97;73.50;96329.06;4367338;32;20243;-59
2023/01/04 11:30:20;;;;;;;0.63;0.63;;;;;;;9.91;73.64;96325.63;4366218;32;20215;-59
2023/01/04 11:32:55;;;;;;;0.27;0.27;;;;;;;10.03;72.78;96316.59;4357024;32;20221;-58
2023/01/04 11:35:43;;;;;;;0.30;0.30;;;;;;;10.05;73.16;96311.81;4355556;32;20212;-58
2023/01/04 11:38:16;;;;;;;0.20;0.20;;;;;;;10.00;72.79;96310.75;4356521;32;20185;-58
2023/01/04 11:41:06;;;;;;;0.33;0.33;;;;;;;9.95;73.00;96308.12;4358437;32;20232;-61
2023/01/04 11:43:36;;;;;;;0.33;0.33;;;;;;;10.06;72.45;96303.59;4352155;32;20200;-56
2023/01/04 11:46:17;;;;;;;0.00;0.00;;;;;;;9.91;72.19;96299.09;4370561;32;20189;-58
2023/01/04 11:48:45;;;;;;;0.23;0.23;;;;;;;9.92;72.57;96292.75;4345716;32;20207;-58
2023/01/04 11:51:25;;;;;;;0.07;0.07;;;;;;;10.06;71.61;96290.34;4348710;32;20244;-59
2023/01/04 11:54:06;;;;;;;0.00;0.00;;;;;;;10.14;70.63;96289.03;4358712;32;20199;-59
2023/01/04 11:56:35;;;;;;;0.00;0.00;;;;;;;10.20;71.00;96293.28;4365767;32;20185;-56
2023/01/04 11:59:16;;;;;;;0.27;0.27;;;;;;;10.27;69.71;96281.34;4349755;32;20192;-58
2023/01/04 12:01:46;;;;;;;3.07;2.87;;;;;;;10.37;69.11;96272.59;4355702;32;20256;-58
2023/01/04 12:04:15;;;;;;;0.23;0.23;;;;;;;10.29;69.70;96265.19;4354991;32;20201;-57
2023/01/04 12:07:00;;;;;;;0.10;0.10;;;;;;;10.44;69.35;96267.00;4360492;32;20237;-58
2023/01/04 12:09:29;;;;;;;0.20;0.20;;;;;;;10.35;68.22;96273.94;4368579;32;20196;-58
2023/01/04 12:11:57;;;;;;;0.10;0.10;;;;;;;10.71;67.48;96262.16;4373077;32;20302;-58
2023/01/04 12:14:24;;;;;;;0.27;0.27;;;;;;;10.79;66.59;96258.97;4368780;32;20189;-58
2023/01/04 12:16:56;;;;;;;1.87;0.63;;;;;;;10.88;66.80;96262.62;4360769;32;20189;-58
2023/01/04 12:19:27;;;;;;;0.20;0.20;;;;;;;10.73;66.32;96256.59;4368494;32;20180;-58
2023/01/04 12:21:56;;;;;;;0.10;0.10;;;;;;;10.85;65.78;96257.06;4348554;32;20197;-58
2023/01/04 12:24:25;;;;;;;0.77;0.77;;;;;;;10.80;65.82;96257.09;4358777;32;20199;-58
2023/01/04 12:26:51;;;;;;;1.23;1.13;;;;;;;10.98;65.29;96246.66;4351036;32;20239;-58
2023/01/04 12:29:21;;;;;;;0.50;0.50;;;;;;;10.67;65.71;96239.88;4353089;32;20232;-58
2023/01/04 12:31:50;;;;;;;0.30;0.30;;;;;;;10.78;65.17;96235.34;4358392;32;20238;-58
2023/01/04 12:34:22;;;;;;;0.40;0.40;;;;;;;10.83;65.76;96237.97;4352449;32;20203;-58
2023/01/04 12:36:47;;;;;;;2.30;0.23;;;;;;;10.81;64.14;96234.78;4358819;32;20232;-58